KRNT - Renton, Washington, USA
Distance from station: W 21mi, 33km
Updated: Thu, 01-Oct-2020 6:53am PDT
Fog, Overcast
Fog, Overcast
 Wind from calm
Wind: Calm
Temperature: 55°F , 13°C
Dew Point: 55°F , 13°C
Humidity: 100%
Barometer: 30.20 inHg , 1022.7 hPa
Visibility: 1/4 mile , 0.4 km
Cloud details: 200 ft
2020/10/01 13:53 KRNT 011353Z AUTO 00000KT 1/4SM FG VV002 13/13 A3020 RMK AO2 SLP230 T01330128
KBFI - Seattle/Boeing, Washington, USA
Distance from station: W 25mi, 41km
Updated: Thu, 01-Oct-2020 7:26am PDT
Mist, Smoke, Overcast
Mist, Smoke, Overcast
 Wind from calm
Wind: Calm
Temperature: 55°F , 13°C
Dew Point: 54°F , 12°C
Humidity: 94%
Barometer: 30.20 inHg , 1022.7 hPa
Summary: Mist, Smoke
Visibility: 1 1/2 miles , 2.4 km
Cloud details: 200 ft
2020/10/01 14:26 KBFI 011426Z 00000KT 1 1/2SM BR FU OVC002 13/12 A3020 RMK AO2 T01330122
 
KSEA - Seattle/Metro, Washington, USA
Distance from station: W 25mi, 41km
Updated: Thu, 01-Oct-2020 7:40am PDT
Fog, Overcast
Fog, Overcast
 Wind from NNE
Wind: NNE 5 mph , 7 km/h
Temperature: 57°F , 14°C
Dew Point: 57°F , 14°C
Humidity: 100%
Barometer: 30.20 inHg , 1022.7 hPa
Visibility: 1/8 mile , 0.2 km
Cloud details: 100 ft
2020/10/01 14:40 KSEA 011440Z 03004KT 1/8SM R16L/0800V1400FT FG VV001 14/14 A3020 RMK AO2 T01390139
KSMP - Stampede Pass, Washington, USA
Distance from station: SE 26mi, 41km
Updated: Thu, 01-Oct-2020 6:56am PDT

 Wind from calm
Wind: Calm
Temperature: 55°F , 13°C
Dew Point: 45°F , 7°C
Humidity: 67%
Barometer: 30.32 inHg , 1026.8 hPa
Visibility: 10 miles , 16 km
Cloud details: 7000 ft
2020/10/01 13:56 KSMP 011356Z AUTO 00000KT 10SM SCT070 13/07 A3032 RMK AO2 SLP251 T01280067
 
KPLU - Puyallup/Thun, Washington, USA
Distance from station: SW 36mi, 59km
Updated: Thu, 01-Oct-2020 7:35am PDT
Drizzle, Overcast
Drizzle, Overcast
 Wind from calm
Wind: Calm
Temperature: 55°F , 13°C
Dew Point: 55°F , 13°C
Humidity: 100%
Barometer: 30.20 inHg , 1022.7 hPa
Visibility: less than 1/4 mile , 0.4 km
Cloud details: 200 ft
2020/10/01 14:35 KPLU 011435Z AUTO 00000KT M1/4SM DZ OVC002 13/13 A3020 RMK AO2
KPAE - Everett, Washington, USA
Distance from station: NW 37mi, 60km
Updated: Thu, 01-Oct-2020 6:53am PDT
Fog, Overcast
Fog, Overcast
 Wind from N
Wind: N 7 mph , 11 km/h
Temperature: 54°F , 12°C
Dew Point: 54°F , 12°C
Humidity: 100%
Barometer: 30.21 inHg , 1023 hPa
Visibility: less than 1/4 mile , 0.4 km
Cloud details: 100 ft
2020/10/01 13:53 KPAE 011353Z 01006KT M1/4SM R16R/0500V0600FT FG VV001 12/12 A3021 RMK AO2 SLP228 T01220122
 
KTIW - Tacoma, Washington, USA
Distance from station: WSW 41mi, 66km
Updated: Thu, 01-Oct-2020 6:53am PDT
Fog, Overcast
Fog, Overcast
 Wind from ENE
Wind: ENE 3 mph , 6 km/h
Temperature: 54°F , 12°C
Dew Point: 54°F , 12°C
Humidity: 100%
Barometer: 30.20 inHg , 1022.7 hPa
Visibility: 1/4 mile , 0.4 km
Cloud details: 200 ft
2020/10/01 13:53 KTIW 011353Z AUTO 06003KT 1/4SM FG VV002 12/12 A3020 RMK AO2 SLP227 T01170117
KTCM - Tacoma/Mc Chord, Washington, USA
Distance from station: SW 42mi, 67km
Updated: Thu, 01-Oct-2020 7:36am PDT
Fog, Overcast
Fog, Overcast
 Wind from N
Wind: N 5 mph , 7 km/h
Temperature: 54°F , 12°C
Dew Point: 54°F , 12°C
Humidity: 100%
Barometer: 30.20 inHg , 1022.7 hPa
Visibility: 1/8 mile , 0.2 km
Cloud details: 100 ft
2020/10/01 14:36 KTCM 011436Z AUTO 36004KT 1/8SM R16/1200V2200FT FG VV001 12/12 A3020 RMK AO2 SLP231 $
 
KPWT - Bremerton Ntnl, Washington, USA
Distance from station: W 45mi, 73km
Updated: Thu, 01-Oct-2020 6:56am PDT

 Wind from NE
Wind: NE 6 mph , 9 km/h
Temperature: 54°F , 12°C
Dew Point: 54°F , 12°C
Humidity: 100%
Barometer: 30.20 inHg , 1022.7 hPa
Visibility: 10 miles , 16 km
2020/10/01 13:56 KPWT 011356Z AUTO 05005KT 10SM CLR 12/12 A3020 RMK AO2 SLP229 T01220122
KGRF - Fort Lewis/Gray, Washington, USA
Distance from station: SW 48mi, 77km
Updated: Thu, 01-Oct-2020 7:16am PDT
Fog, Overcast
Fog, Overcast
 Wind from calm
Wind: Calm
Temperature: 54°F , 12°C
Barometer: 30.19 inHg , 1022.4 hPa
Visibility: 1/8 mile , 0.2 km
Cloud details: 100 ft
2020/10/01 14:16 KGRF 011416Z 00000KT 1/8SM R15/0500V0600FT FG VV001 12/ A3019 RMK AO2A SLP227 $
 
KAWO - Arlington Muni, Washington, USA
Distance from station: NNW 50mi, 80km
Updated: Thu, 01-Oct-2020 6:56am PDT
Fog, Overcast
Fog, Overcast
 Wind from calm
Wind: Calm
Temperature: 54°F , 12°C
Dew Point: 54°F , 12°C
Humidity: 100%
Barometer: 30.21 inHg , 1023 hPa
Visibility: 1/4 mile , 0.4 km
Cloud details: 200 ft
2020/10/01 13:56 KAWO 011356Z AUTO 00000KT 1/4SM FG OVC002 12/12 A3021 RMK AO2 SLP234 T01170117 PNO $